Time;durP1;ratioP1;P1;durP2;ratioP2;P2;SDS_P1;SDS_P2;PMS_P1;PMS_P2;Temp;Humidity;BMP_temperature;BMP_pressure;BME280_temperature;BME280_humidity;BME280_pressure;Samples;Min_cycle;Max_cycle;Signal;HPM_P1;HPM_P2
2023/09/26 00:01:14;;;;;;;;;;;;;;;;;;4974990;28;20005;-62
2023/09/26 00:03:40;;;;;;;;;;;;;;;;;;4974805;28;20256;-61
2023/09/26 00:06:06;;;;;;;;;;;;;;;;;;4971586;28;19933;-61
2023/09/26 00:08:33;;;;;;;;;;;;;;;;;;4969374;28;19930;-62
2023/09/26 00:10:59;;;;;;;;;;;;;;;;;;4970878;28;19977;-62
2023/09/26 00:13:25;;;;;;;;;;;;;;;;;;4969372;28;19930;-61
2023/09/26 00:15:51;;;;;;;;;;;;;;;;;;4973004;28;20340;-60
2023/09/26 00:18:17;;;;;;;;;;;;;;;;;;4972169;28;19929;-60
2023/09/26 00:20:44;;;;;;;;;;;;;;;;;;4975007;28;19926;-61
2023/09/26 00:23:11;;;;;;;;;;;;;;;;;;4974203;28;19936;-61
2023/09/26 00:25:37;;;;;;;;;;;;;;;;;;4971132;28;19926;-60
2023/09/26 00:28:03;;;;;;;;;;;;;;;;;;4974705;28;19980;-60
2023/09/26 00:30:29;;;;;;;;;;;;;;;;;;4974459;28;19930;-61
2023/09/26 00:32:55;;;;;;;;;;;;;;;;;;4973975;28;19930;-61
2023/09/26 00:35:21;;;;;;;;;;;;;;;;;;4971895;28;19922;-61
2023/09/26 00:37:47;;;;;;;;;;;;;;;;;;4971827;28;20406;-61
2023/09/26 00:40:16;;;;;;;;;;;;;;;;;;4968775;28;19926;-61
2023/09/26 00:42:42;;;;;;;;;;;;;;;;;;4972722;28;19926;-61
2023/09/26 00:45:08;;;;;;;;;;;;;;;;;;4968647;28;19929;-62
2023/09/26 00:47:35;;;;;;;;;;;;;;;;;;4975464;28;19929;-60
2023/09/26 00:50:01;;;;;;;;;;;;;;;;;;4973994;28;19968;-61
2023/09/26 00:52:27;;;;;;;;;;;;;;;;;;4978089;28;20016;-61
2023/09/26 00:54:53;;;;;;;;;;;;;;;;;;4975899;28;20003;-60
2023/09/26 00:57:18;;;;;;;;;;;;;;;;;;4971924;28;20000;-61
2023/09/26 00:59:44;;;;;;;;;;;;;;;;;;4971560;28;19948;-60
2023/09/26 01:02:10;;;;;;;;;;;;;;;;;;4972409;28;19929;-61
2023/09/26 01:04:36;;;;;;;;;;;;;;;;;;4972687;28;19930;-60
2023/09/26 01:07:02;;;;;;;;;;;;;;;;;;4975462;28;19929;-60
2023/09/26 01:09:28;;;;;;;;;;;;;;;;;;4972885;28;20323;-60
2023/09/26 01:11:54;;;;;;;;;;;;;;;;;;4974045;28;19921;-61
2023/09/26 01:14:20;;;;;;;;;;;;;;;;;;4975433;28;20287;-61
2023/09/26 01:16:46;;;;;;;;;;;;;;;;;;4969955;28;19926;-61
2023/09/26 01:19:12;;;;;;;;;;;;;;;;;;4972903;28;19952;-61
2023/09/26 01:21:38;;;;;;;;;;;;;;;;;;4978444;28;19921;-60
2023/09/26 01:24:04;;;;;;;;;;;;;;;;;;4950876;28;19996;-61
2023/09/26 01:26:29;;;;;;;;;;;;;;;;;;4980861;28;19930;-61
2023/09/26 01:28:55;;;;;;;;;;;;;;;;;;4973113;28;19930;-61
2023/09/26 01:31:21;;;;;;;;;;;;;;;;;;4979864;28;20506;-61
2023/09/26 01:33:47;;;;;;;;;;;;;;;;;;4975384;28;19980;-61
2023/09/26 01:36:13;;;;;;;;;;;;;;;;;;4982380;28;19925;-62
2023/09/26 01:38:39;;;;;;;;;;;;;;;;;;4977389;28;19933;-62
2023/09/26 01:41:05;;;;;;;;;;;;;;;;;;4976536;28;20288;-59
2023/09/26 01:43:31;;;;;;;;;;;;;;;;;;4977192;28;19922;-61
2023/09/26 01:45:57;;;;;;;;;;;;;;;;;;4976027;28;19961;-60
2023/09/26 01:48:23;;;;;;;;;;;;;;;;;;4979608;28;19953;-60
2023/09/26 01:50:49;;;;;;;;;;;;;;;;;;4979010;28;19973;-60
2023/09/26 01:53:15;;;;;;;;;;;;;;;;;;4958566;28;19928;-60
2023/09/26 01:55:41;;;;;;;;;;;;;;;;;;4984792;28;20414;-60
2023/09/26 01:58:07;;;;;;;;;;;;;;;;;;4972703;28;19950;-60
2023/09/26 02:00:34;;;;;;;;;;;;;;;;;;4974962;28;21553;-61
2023/09/26 02:03:00;;;;;;;;;;;;;;;;;;4976912;28;19922;-61
2023/09/26 02:05:26;;;;;;;;;;;;;;;;;;4976145;28;20050;-61
2023/09/26 02:07:52;;;;;;;;;;;;;;;;;;4971653;28;19973;-60
2023/09/26 02:10:18;;;;;;;;;;;;;;;;;;4996949;28;19929;-60
2023/09/26 02:12:44;;;;;;;;;;;;;;;;;;4978920;28;19933;-61
2023/09/26 02:15:11;;;;;;;;;;;;;;;;;;4975593;28;19929;-61
2023/09/26 02:17:37;;;;;;;;;;;;;;;;;;4999797;28;20261;-61
2023/09/26 02:20:09;;;;;;;;;;;;;;;;;;4974844;28;19984;-61
2023/09/26 02:22:35;;;;;;;;;;;;;;;;;;4976359;28;19930;-61
2023/09/26 02:25:01;;;;;;;;;;;;;;;;;;4977290;28;19933;-61
2023/09/26 02:27:27;;;;;;;;;;;;;;;;;;4973429;28;19922;-61
2023/09/26 02:29:53;;;;;;;;;;;;;;;;;;4974422;28;20013;-61
2023/09/26 02:32:18;;;;;;;;;;;;;;;;;;4957986;28;19964;-61
2023/09/26 02:34:44;;;;;;;;;;;;;;;;;;5001973;28;19996;-61
2023/09/26 02:37:10;;;;;;;;;;;;;;;;;;4975777;28;20000;-61
2023/09/26 02:39:36;;;;;;;;;;;;;;;;;;4972665;28;20341;-60
2023/09/26 02:42:02;;;;;;;;;;;;;;;;;;4979908;28;19932;-60
2023/09/26 02:44:28;;;;;;;;;;;;;;;;;;4975798;28;19930;-60
2023/09/26 02:46:54;;;;;;;;;;;;;;;;;;4975352;28;19922;-60
2023/09/26 02:49:20;;;;;;;;;;;;;;;;;;4973612;28;19926;-61
2023/09/26 02:51:46;;;;;;;;;;;;;;;;;;4983884;28;19939;-60
2023/09/26 02:54:12;;;;;;;;;;;;;;;;;;4974944;28;19930;-61
2023/09/26 02:56:38;;;;;;;;;;;;;;;;;;4974224;28;20346;-61
2023/09/26 02:59:04;;;;;;;;;;;;;;;;;;4975039;28;20010;-61
2023/09/26 03:01:30;;;;;;;;;;;;;;;;;;4975340;28;20307;-61
2023/09/26 03:03:56;;;;;;;;;;;;;;;;;;4975868;28;19945;-61
2023/09/26 03:06:22;;;;;;;;;;;;;;;;;;4975188;28;19921;-61
2023/09/26 03:08:48;;;;;;;;;;;;;;;;;;4977119;28;19926;-61
2023/09/26 03:11:14;;;;;;;;;;;;;;;;;;4975302;28;19925;-60
2023/09/26 03:13:39;;;;;;;;;;;;;;;;;;4975196;28;19969;-60
2023/09/26 03:16:08;;;;;;;;;;;;;;;;;;4968624;28;19976;-60
2023/09/26 03:18:34;;;;;;;;;;;;;;;;;;5000851;28;20380;-61
2023/09/26 03:21:00;;;;;;;;;;;;;;;;;;4971797;28;19925;-60
2023/09/26 03:23:26;;;;;;;;;;;;;;;;;;4971308;28;19929;-61
2023/09/26 03:25:52;;;;;;;;;;;;;;;;;;4969728;28;19976;-61
2023/09/26 03:28:18;;;;;;;;;;;;;;;;;;4970274;28;20382;-61
2023/09/26 03:30:46;;;;;;;;;;;;;;;;;;4970653;28;19981;-59
2023/09/26 03:33:12;;;;;;;;;;;;;;;;;;4975216;28;19985;-61
2023/09/26 03:35:38;;;;;;;;;;;;;;;;;;4977935;28;19921;-61
2023/09/26 03:38:04;;;;;;;;;;;;;;;;;;4970984;28;19929;-61
2023/09/26 03:40:30;;;;;;;;;;;;;;;;;;4981116;28;19972;-62
2023/09/26 03:42:56;;;;;;;;;;;;;;;;;;4977043;28;19926;-61
2023/09/26 03:45:22;;;;;;;;;;;;;;;;;;4989307;28;19957;-62
2023/09/26 03:47:47;;;;;;;;;;;;;;;;;;4970803;28;19922;-62
2023/09/26 03:50:13;;;;;;;;;;;;;;;;;;4977258;28;20054;-60
2023/09/26 03:52:39;;;;;;;;;;;;;;;;;;4980393;28;19926;-61
2023/09/26 03:55:05;;;;;;;;;;;;;;;;;;4975698;28;19940;-60
2023/09/26 03:57:31;;;;;;;;;;;;;;;;;;4974649;28;20324;-61
2023/09/26 03:59:57;;;;;;;;;;;;;;;;;;4973276;28;19930;-61
2023/09/26 04:02:23;;;;;;;;;;;;;;;;;;4975174;28;19926;-61
2023/09/26 04:04:49;;;;;;;;;;;;;;;;;;4978528;28;19937;-60
2023/09/26 04:07:15;;;;;;;;;;;;;;;;;;4967331;28;19926;-62
2023/09/26 04:09:41;;;;;;;;;;;;;;;;;;4966538;28;19934;-61
2023/09/26 04:12:07;;;;;;;;;;;;;;;;;;4971073;28;20389;-61
2023/09/26 04:14:32;;;;;;;;;;;;;;;;;;4983427;28;19929;-62
2023/09/26 04:16:58;;;;;;;;;;;;;;;;;;4974738;28;20283;-62
2023/09/26 04:19:24;;;;;;;;;;;;;;;;;;4972701;28;19976;-61
2023/09/26 04:21:50;;;;;;;;;;;;;;;;;;4980634;28;19925;-61
2023/09/26 04:24:16;;;;;;;;;;;;;;;;;;4972833;28;19929;-61
2023/09/26 04:26:42;;;;;;;;;;;;;;;;;;4970933;28;19926;-61
2023/09/26 04:29:10;;;;;;;;;;;;;;;;;;4971045;28;20391;-61
2023/09/26 04:31:36;;;;;;;;;;;;;;;;;;4976576;28;19922;-61
2023/09/26 04:34:02;;;;;;;;;;;;;;;;;;4990132;28;19926;-62
2023/09/26 04:36:27;;;;;;;;;;;;;;;;;;4975267;28;20025;-59
2023/09/26 04:38:53;;;;;;;;;;;;;;;;;;4977630;28;19934;-61
2023/09/26 04:41:19;;;;;;;;;;;;;;;;;;4972883;28;19929;-61
2023/09/26 04:43:45;;;;;;;;;;;;;;;;;;4981666;28;19953;-61
2023/09/26 04:46:14;;;;;;;;;;;;;;;;;;4966171;28;20016;-61
2023/09/26 04:48:40;;;;;;;;;;;;;;;;;;4975765;28;19976;-61
2023/09/26 04:51:06;;;;;;;;;;;;;;;;;;4973778;28;19969;-61
2023/09/26 04:53:32;;;;;;;;;;;;;;;;;;4979238;28;19985;-61
2023/09/26 04:55:58;;;;;;;;;;;;;;;;;;4975946;28;20017;-61
2023/09/26 04:58:24;;;;;;;;;;;;;;;;;;4977683;28;19945;-61
2023/09/26 05:00:50;;;;;;;;;;;;;;;;;;4975570;28;19976;-61
2023/09/26 05:03:15;;;;;;;;;;;;;;;;;;4978574;28;19934;-61
2023/09/26 05:05:41;;;;;;;;;;;;;;;;;;4981979;28;19926;-61
2023/09/26 05:08:07;;;;;;;;;;;;;;;;;;4981136;28;20407;-61
2023/09/26 05:10:33;;;;;;;;;;;;;;;;;;4975599;28;20017;-59
2023/09/26 05:12:59;;;;;;;;;;;;;;;;;;4980907;28;19926;-62
2023/09/26 05:15:25;;;;;;;;;;;;;;;;;;4980283;28;20335;-61
2023/09/26 05:17:54;;;;;;;;;;;;;;;;;;4979064;28;19922;-62
2023/09/26 05:20:20;;;;;;;;;;;;;;;;;;4972335;28;20396;-61
2023/09/26 05:22:46;;;;;;;;;;;;;;;;;;4977621;28;19926;-60
2023/09/26 05:25:12;;;;;;;;;;;;;;;;;;4969216;28;19926;-61
2023/09/26 05:27:38;;;;;;;;;;;;;;;;;;4969102;28;19922;-60
2023/09/26 05:30:04;;;;;;;;;;;;;;;;;;4976425;28;19957;-61
2023/09/26 05:32:29;;;;;;;;;;;;;;;;;;4980119;28;19969;-62
2023/09/26 05:34:55;;;;;;;;;;;;;;;;;;4979054;28;19925;-61
2023/09/26 05:37:21;;;;;;;;;;;;;;;;;;4976132;28;20357;-61
2023/09/26 05:39:47;;;;;;;;;;;;;;;;;;4980711;28;19934;-61
2023/09/26 05:42:13;;;;;;;;;;;;;;;;;;4979189;28;19926;-61
2023/09/26 05:44:39;;;;;;;;;;;;;;;;;;4980830;28;20590;-61
2023/09/26 05:47:05;;;;;;;;;;;;;;;;;;4980856;28;19934;-61
2023/09/26 05:49:31;;;;;;;;;;;;;;;;;;4973190;28;19926;-61
2023/09/26 05:51:57;;;;;;;;;;;;;;;;;;4979708;28;19926;-61
2023/09/26 05:54:22;;;;;;;;;;;;;;;;;;4980250;28;20009;-61
2023/09/26 05:56:48;;;;;;;;;;;;;;;;;;4974666;28;19930;-61
2023/09/26 05:59:14;;;;;;;;;;;;;;;;;;4977946;28;19929;-61
2023/09/26 06:01:40;;;;;;;;;;;;;;;;;;4969757;28;20481;-61
2023/09/26 06:04:06;;;;;;;;;;;;;;;;;;4974055;28;19926;-61
2023/09/26 06:06:32;;;;;;;;;;;;;;;;;;4971501;28;20429;-60
2023/09/26 06:08:58;;;;;;;;;;;;;;;;;;4980208;28;19933;-60
2023/09/26 06:11:24;;;;;;;;;;;;;;;;;;4978671;28;20267;-61
2023/09/26 06:13:52;;;;;;;;;;;;;;;;;;4985077;28;20610;-60
2023/09/26 06:16:18;;;;;;;;;;;;;;;;;;4974340;28;19968;-60
2023/09/26 06:18:44;;;;;;;;;;;;;;;;;;4987457;28;19968;-61
2023/09/26 06:21:13;;;;;;;;;;;;;;;;;;4974091;28;20407;-60
2023/09/26 06:23:38;;;;;;;;;;;;;;;;;;4979776;28;20017;-60
2023/09/26 06:26:04;;;;;;;;;;;;;;;;;;4971797;28;20410;-61
2023/09/26 06:28:31;;;;;;;;;;;;;;;;;;4973332;28;20025;-61
2023/09/26 06:30:57;;;;;;;;;;;;;;;;;;4975324;28;19922;-61
2023/09/26 06:33:22;;;;;;;;;;;;;;;;;;4971569;28;20318;-61
2023/09/26 06:35:48;;;;;;;;;;;;;;;;;;4975272;28;20368;-61
2023/09/26 06:38:14;;;;;;;;;;;;;;;;;;4972552;28;19928;-61
2023/09/26 06:40:41;;;;;;;;;;;;;;;;;;4969814;28;20016;-61
2023/09/26 06:43:07;;;;;;;;;;;;;;;;;;4972530;28;19926;-61
2023/09/26 06:45:33;;;;;;;;;;;;;;;;;;4972423;28;19926;-61
2023/09/26 06:47:59;;;;;;;;;;;;;;;;;;4956238;28;20040;-60
2023/09/26 06:50:25;;;;;;;;;;;;;;;;;;4968572;28;21424;-60
2023/09/26 06:52:52;;;;;;;;;;;;;;;;;;5001411;28;20029;-60
2023/09/26 06:55:18;;;;;;;;;;;;;;;;;;4967917;28;20379;-60
2023/09/26 06:57:44;;;;;;;;;;;;;;;;;;5000516;28;19973;-61
2023/09/26 07:00:16;;;;;;;;;;;;;;;;;;4970481;28;19926;-60
2023/09/26 07:02:42;;;;;;;;;;;;;;;;;;4972589;28;19929;-61
2023/09/26 07:05:08;;;;;;;;;;;;;;;;;;4965281;28;20373;-60
2023/09/26 07:07:34;;;;;;;;;;;;;;;;;;4967433;28;19933;-61
2023/09/26 07:10:00;;;;;;;;;;;;;;;;;;4961277;28;19927;-61
2023/09/26 07:12:26;;;;;;;;;;;;;;;;;;4971319;28;19933;-60
2023/09/26 07:14:52;;;;;;;;;;;;;;;;;;4966995;28;19926;-61
2023/09/26 07:17:18;;;;;;;;;;;;;;;;;;4967074;28;19984;-60
2023/09/26 07:19:44;;;;;;;;;;;;;;;;;;4978662;28;19922;-60
2023/09/26 07:22:10;;;;;;;;;;;;;;;;;;4963435;28;20537;-61
2023/09/26 07:24:36;;;;;;;;;;;;;;;;;;4959488;28;19949;-61
2023/09/26 07:27:02;;;;;;;;;;;;;;;;;;4982271;28;19947;-61
2023/09/26 07:29:28;;;;;;;;;;;;;;;;;;4967080;28;19926;-61
2023/09/26 07:31:54;;;;;;;;;;;;;;;;;;4965342;28;19964;-61
2023/09/26 07:34:20;;;;;;;;;;;;;;;;;;4967215;28;19968;-61
2023/09/26 07:36:46;;;;;;;;;;;;;;;;;;4978702;28;19929;-61
2023/09/26 07:39:14;;;;;;;;;;;;;;;;;;4976161;28;19930;-61
2023/09/26 07:41:40;;;;;;;;;;;;;;;;;;4970356;28;19981;-61
2023/09/26 07:44:06;;;;;;;;;;;;;;;;;;4977716;28;19930;-61
2023/09/26 07:46:32;;;;;;;;;;;;;;;;;;4969163;28;20358;-61
2023/09/26 07:48:58;;;;;;;;;;;;;;;;;;4976762;28;19980;-61
2023/09/26 07:51:24;;;;;;;;;;;;;;;;;;4977281;28;20376;-61
2023/09/26 07:53:49;;;;;;;;;;;;;;;;;;5002092;28;19929;-61
2023/09/26 07:56:16;;;;;;;;;;;;;;;;;;4975825;28;20334;-61
2023/09/26 07:58:42;;;;;;;;;;;;;;;;;;4978709;28;19921;-61
2023/09/26 08:01:09;;;;;;;;;;;;;;;;;;4989731;28;19926;-61
2023/09/26 08:03:35;;;;;;;;;;;;;;;;;;4978354;28;19926;-61
2023/09/26 08:06:01;;;;;;;;;;;;;;;;;;4986094;28;19932;-61
2023/09/26 08:08:28;;;;;;;;;;;;;;;;;;4967753;28;19934;-61
2023/09/26 08:10:54;;;;;;;;;;;;;;;;;;4970656;28;19936;-61
2023/09/26 08:13:20;;;;;;;;;;;;;;;;;;4974576;28;19922;-61
2023/09/26 08:15:46;;;;;;;;;;;;;;;;;;4964936;28;19926;-61
2023/09/26 08:18:12;;;;;;;;;;;;;;;;;;4965949;28;19926;-61
2023/09/26 08:20:38;;;;;;;;;;;;;;;;;;4957335;28;19933;-61
2023/09/26 08:23:05;;;;;;;;;;;;;;;;;;4968849;28;19930;-62
2023/09/26 08:25:32;;;;;;;;;;;;;;;;;;4967375;28;19922;-62
2023/09/26 08:27:58;;;;;;;;;;;;;;;;;;4967787;28;20307;-61
2023/09/26 08:30:24;;;;;;;;;;;;;;;;;;4976096;28;19922;-62
2023/09/26 08:32:50;;;;;;;;;;;;;;;;;;4971707;28;19953;-61
2023/09/26 08:35:16;;;;;;;;;;;;;;;;;;4978899;28;20383;-63
2023/09/26 08:37:42;;;;;;;;;;;;;;;;;;4969778;28;20479;-62
2023/09/26 08:40:10;;;;;;;;;;;;;;;;;;4971923;28;19930;-62
2023/09/26 08:42:36;;;;;;;;;;;;;;;;;;4967612;28;20339;-61
2023/09/26 08:45:02;;;;;;;;;;;;;;;;;;4974329;28;20009;-62
2023/09/26 08:47:28;;;;;;;;;;;;;;;;;;4980292;28;20468;-62
2023/09/26 08:49:54;;;;;;;;;;;;;;;;;;4978946;28;19926;-61
2023/09/26 08:52:20;;;;;;;;;;;;;;;;;;4986129;28;19926;-62
2023/09/26 08:54:46;;;;;;;;;;;;;;;;;;5039046;22;20382;-62
2023/09/26 08:57:12;;;;;;;;;;;;;;;;;;5029797;28;19957;-59
2023/09/26 08:59:39;;;;;;;;;;;;;;;;;;5023549;28;19925;-59
2023/09/26 09:02:04;;;;;;;;;;;;;;;;;;5027116;28;19940;-62
2023/09/26 09:04:30;;;;;;;;;;;;;;;;;;5024512;28;19921;-63
2023/09/26 09:06:56;;;;;;;;;;;;;;;;;;5030111;28;20008;-62
2023/09/26 09:09:22;;;;;;;;;;;;;;;;;;5027289;28;19925;-62
2023/09/26 09:11:48;;;;;;;;;;;;;;;;;;5030175;28;19925;-62
2023/09/26 09:14:14;;;;;;;;;;;;;;;;;;5028973;28;19925;-62
2023/09/26 09:16:40;;;;;;;;;;;;;;;;;;5011658;28;19930;-62
2023/09/26 09:19:06;;;;;;;;;;;;;;;;;;5020148;28;19924;-61
2023/09/26 09:21:32;;;;;;;;;;;;;;;;;;5029401;28;19967;-61
2023/09/26 09:23:58;;;;;;;;;;;;;;;;;;5022281;28;19921;-61
2023/09/26 09:26:24;;;;;;;;;;;;;;;;;;5028663;28;20365;-62
2023/09/26 09:28:51;;;;;;;;;;;;;;;;;;5023526;28;19925;-61
2023/09/26 09:31:17;;;;;;;;;;;;;;;;;;5026504;28;19951;-61
2023/09/26 09:33:43;;;;;;;;;;;;;;;;;;5022547;28;20349;-61
2023/09/26 09:36:09;;;;;;;;;;;;;;;;;;5026247;28;20020;-61
2023/09/26 09:38:35;;;;;;;;;;;;;;;;;;5030769;28;19975;-61
2023/09/26 09:41:02;;;;;;;;;;;;;;;;;;5014537;28;19929;-60
2023/09/26 09:43:28;;;;;;;;;;;;;;;;;;5025454;28;19921;-60
2023/09/26 09:45:54;;;;;;;;;;;;;;;;;;5032825;28;19948;-61
2023/09/26 09:48:19;;;;;;;;;;;;;;;;;;5017375;28;19968;-61
2023/09/26 09:50:45;;;;;;;;;;;;;;;;;;5030966;28;19925;-61
2023/09/26 09:53:12;;;;;;;;;;;;;;;;;;5031188;28;20366;-61
2023/09/26 09:55:38;;;;;;;;;;;;;;;;;;5028607;28;20298;-61
2023/09/26 09:58:06;;;;;;;;;;;;;;;;;;5022523;28;19921;-61
2023/09/26 10:00:31;;;;;;;;;;;;;;;;;;5031141;28;19957;-61
2023/09/26 10:03:00;;;;;;;;;;;;;;;;;;5027897;28;20283;-61
2023/09/26 10:05:26;;;;;;;;;;;;;;;;;;5030110;28;19921;-61
2023/09/26 10:07:54;;;;;;;;;;;;;;;;;;5032276;28;19928;-61
2023/09/26 10:10:20;;;;;;;;;;;;;;;;;;5022240;28;20547;-60
2023/09/26 10:12:46;;;;;;;;;;;;;;;;;;5029966;28;19925;-60
2023/09/26 10:15:13;;;;;;;;;;;;;;;;;;5030992;28;19925;-60
2023/09/26 10:17:39;;;;;;;;;;;;;;;;;;5029123;28;20004;-61
2023/09/26 10:20:07;;;;;;;;;;;;;;;;;;5029223;28;19925;-61
2023/09/26 10:22:33;;;;;;;;;;;;;;;;;;5030205;28;20461;-62
2023/09/26 10:24:59;;;;;;;;;;;;;;;;;;5029704;28;19921;-61
2023/09/26 10:27:25;;;;;;;;;;;;;;;;;;5030742;28;20268;-61
2023/09/26 10:29:52;;;;;;;;;;;;;;;;;;5046916;28;19933;-62
2023/09/26 10:32:18;;;;;;;;;;;;;;;;;;5025515;28;19932;-61
2023/09/26 10:34:44;;;;;;;;;;;;;;;;;;5025852;28;20290;-61
2023/09/26 10:37:10;;;;;;;;;;;;;;;;;;5008910;28;19932;-61
2023/09/26 10:39:36;;;;;;;;;;;;;;;;;;5028860;28;20007;-61
2023/09/26 10:42:02;;;;;;;;;;;;;;;;;;5032229;28;19960;-61
2023/09/26 10:44:28;;;;;;;;;;;;;;;;;;5032638;28;19921;-60
2023/09/26 10:46:53;;;;;;;;;;;;;;;;;;5032019;28;19935;-60
2023/09/26 10:49:19;;;;;;;;;;;;;;;;;;5027747;28;19921;-61
2023/09/26 10:51:45;;;;;;;;;;;;;;;;;;5029139;28;20329;-60
2023/09/26 10:54:11;;;;;;;;;;;;;;;;;;5023317;28;19929;-60
2023/09/26 10:56:38;;;;;;;;;;;;;;;;;;5029588;28;19935;-61
2023/09/26 10:59:04;;;;;;;;;;;;;;;;;;5022004;28;20259;-61
2023/09/26 11:01:30;;;;;;;;;;;;;;;;;;5027461;28;19928;-61
2023/09/26 11:03:56;;;;;;;;;;;;;;;;;;5030715;28;20007;-61
2023/09/26 11:06:22;;;;;;;;;;;;;;;;;;5023952;28;19921;-61
2023/09/26 11:08:47;;;;;;;;;;;;;;;;;;5023491;28;19921;-64
2023/09/26 11:11:18;;;;;;;;;;;;;;;;;;5026984;28;21298;-61
2023/09/26 11:13:44;;;;;;;;;;;;;;;;;;5030182;28;19925;-61
2023/09/26 11:16:10;;;;;;;;;;;;;;;;;;5025310;28;20686;-60
2023/09/26 11:18:36;;;;;;;;;;;;;;;;;;5030071;28;19924;-61
2023/09/26 11:21:02;;;;;;;;;;;;;;;;;;5029009;28;20346;-61
2023/09/26 11:23:28;;;;;;;;;;;;;;;;;;5029538;28;19921;-62
2023/09/26 11:25:56;;;;;;;;;;;;;;;;;;5021492;28;20660;-62
2023/09/26 11:28:22;;;;;;;;;;;;;;;;;;5029147;28;19936;-62
2023/09/26 11:30:48;;;;;;;;;;;;;;;;;;5030721;28;19928;-62
2023/09/26 11:33:14;;;;;;;;;;;;;;;;;;5027828;28;19925;-61
2023/09/26 11:35:40;;;;;;;;;;;;;;;;;;5014974;28;19948;-61
2023/09/26 11:38:06;;;;;;;;;;;;;;;;;;5012032;28;19925;-62
2023/09/26 11:40:32;;;;;;;;;;;;;;;;;;5018407;28;20000;-62
2023/09/26 11:42:58;;;;;;;;;;;;;;;;;;5026503;28;20007;-60
2023/09/26 11:45:24;;;;;;;;;;;;;;;;;;5010792;28;20793;-62
2023/09/26 11:47:49;;;;;;;;;;;;;;;;;;5022174;28;19932;-61
2023/09/26 11:50:15;;;;;;;;;;;;;;;;;;5023244;28;20015;-62
2023/09/26 11:52:42;;;;;;;;;;;;;;;;;;5029630;28;19936;-61
2023/09/26 11:55:08;;;;;;;;;;;;;;;;;;5031553;28;19937;-61
2023/09/26 11:57:34;;;;;;;;;;;;;;;;;;5031412;28;19929;-61
2023/09/26 12:00:00;;;;;;;;;;;;;;;;;;5025617;28;20267;-61
2023/09/26 12:02:26;;;;;;;;;;;;;;;;;;5032275;28;19921;-61
2023/09/26 12:04:51;;;;;;;;;;;;;;;;;;5025683;28;19925;-61
2023/09/26 12:07:17;;;;;;;;;;;;;;;;;;5028978;28;19925;-61
2023/09/26 12:09:44;;;;;;;;;;;;;;;;;;5030695;28;19975;-61
2023/09/26 12:12:10;;;;;;;;;;;;;;;;;;5025864;28;19972;-61
2023/09/26 12:14:35;;;;;;;;;;;;;;;;;;5031522;28;19972;-61
2023/09/26 12:17:03;;;;;;;;;;;;;;;;;;5030593;28;19928;-61
2023/09/26 12:19:29;;;;;;;;;;;;;;;;;;5030854;28;20416;-61
2023/09/26 12:21:55;;;;;;;;;;;;;;;;;;5033257;28;19922;-61
2023/09/26 12:24:21;;;;;;;;;;;;;;;;;;5030295;28;19925;-61
2023/09/26 12:26:47;;;;;;;;;;;;;;;;;;5028964;28;19932;-61
2023/09/26 12:29:14;;;;;;;;;;;;;;;;;;5034519;28;19925;-61
2023/09/26 12:31:42;;;;;;;;;;;;;;;;;;5012882;28;19959;-61
2023/09/26 12:34:08;;;;;;;;;;;;;;;;;;5017862;28;20027;-61
2023/09/26 12:36:34;;;;;;;;;;;;;;;;;;5029861;28;19941;-61
2023/09/26 12:39:00;;;;;;;;;;;;;;;;;;5030720;28;20258;-61
2023/09/26 12:41:26;;;;;;;;;;;;;;;;;;5029890;28;19921;-61
2023/09/26 12:43:51;;;;;;;;;;;;;;;;;;5031109;28;20022;-60
2023/09/26 12:46:17;;;;;;;;;;;;;;;;;;5030420;28;19991;-60
2023/09/26 12:48:43;;;;;;;;;;;;;;;;;;5028878;28;19929;-61
2023/09/26 12:51:09;;;;;;;;;;;;;;;;;;5030621;28;19921;-61
2023/09/26 12:53:35;;;;;;;;;;;;;;;;;;5013301;28;19932;-61
2023/09/26 12:56:01;;;;;;;;;;;;;;;;;;5028841;28;19932;-60
2023/09/26 12:58:27;;;;;;;;;;;;;;;;;;5055208;28;20295;-61
2023/09/26 13:00:53;;;;;;;;;;;;;;;;;;5029293;28;20147;-61
2023/09/26 13:03:19;;;;;;;;;;;;;;;;;;5020226;28;19975;-61
2023/09/26 13:05:46;;;;;;;;;;;;;;;;;;5026979;28;20394;-61
2023/09/26 13:08:11;;;;;;;;;;;;;;;;;;5028684;28;20367;-61
2023/09/26 13:10:37;;;;;;;;;;;;;;;;;;5028458;28;19928;-61
2023/09/26 13:13:03;;;;;;;;;;;;;;;;;;5025716;28;21103;-61
2023/09/26 13:15:31;;;;;;;;;;;;;;;;;;5031202;28;20012;-61
2023/09/26 13:17:57;;;;;;;;;;;;;;;;;;5013382;28;19935;-61
2023/09/26 13:20:23;;;;;;;;;;;;;;;;;;5028552;28;19922;-61
2023/09/26 13:22:49;;;;;;;;;;;;;;;;;;5049019;28;19936;-60
2023/09/26 13:25:15;;;;;;;;;;;;;;;;;;5034820;28;19925;-60
2023/09/26 13:27:41;;;;;;;;;;;;;;;;;;5027864;28;19960;-61
2023/09/26 13:30:07;;;;;;;;;;;;;;;;;;5031641;28;19974;-61
2023/09/26 13:32:33;;;;;;;;;;;;;;;;;;5030895;28;20543;-60
2023/09/26 13:35:01;;;;;;;;;;;;;;;;;;5027378;28;20489;-60
2023/09/26 13:37:27;;;;;;;;;;;;;;;;;;5027497;28;19925;-61
2023/09/26 13:39:53;;;;;;;;;;;;;;;;;;5022207;28;19921;-61
2023/09/26 13:42:18;;;;;;;;;;;;;;;;;;5028687;28;19921;-60
2023/09/26 13:44:44;;;;;;;;;;;;;;;;;;5027032;28;20583;-61
2023/09/26 13:47:10;;;;;;;;;;;;;;;;;;5033676;28;19925;-61
2023/09/26 13:49:36;;;;;;;;;;;;;;;;;;5033642;28;19944;-61
2023/09/26 13:52:03;;;;;;;;;;;;;;;;;;5032512;28;19928;-61
2023/09/26 13:54:30;;;;;;;;;;;;;;;;;;5032832;28;20003;-62
2023/09/26 13:56:56;;;;;;;;;;;;;;;;;;5027745;28;19988;-61
2023/09/26 13:59:21;;;;;;;;;;;;;;;;;;5032662;28;19925;-60
2023/09/26 14:01:47;;;;;;;;;;;;;;;;;;5033473;28;20012;-61
2023/09/26 14:04:13;;;;;;;;;;;;;;;;;;5033801;28;20397;-61
2023/09/26 14:06:39;;;;;;;;;;;;;;;;;;5032844;28;19921;-60
2023/09/26 14:09:05;;;;;;;;;;;;;;;;;;5033794;28;20275;-61
2023/09/26 14:11:31;;;;;;;;;;;;;;;;;;5038349;28;19925;-61
2023/09/26 14:13:57;;;;;;;;;;;;;;;;;;5034128;28;19922;-61
2023/09/26 14:16:24;;;;;;;;;;;;;;;;;;5033885;28;20256;-60
2023/09/26 14:18:50;;;;;;;;;;;;;;;;;;5036958;28;20015;-61
2023/09/26 14:21:17;;;;;;;;;;;;;;;;;;5035223;28;20349;-61
2023/09/26 14:23:43;;;;;;;;;;;;;;;;;;5038357;28;19964;-61
2023/09/26 14:26:09;;;;;;;;;;;;;;;;;;5032762;28;19953;-61
2023/09/26 14:28:35;;;;;;;;;;;;;;;;;;5030272;28;20351;-62
2023/09/26 14:31:01;;;;;;;;;;;;;;;;;;5031888;28;19984;-60
2023/09/26 14:33:27;;;;;;;;;;;;;;;;;;5032417;28;19928;-60
2023/09/26 14:35:53;;;;;;;;;;;;;;;;;;5033354;28;19959;-61
2023/09/26 14:38:19;;;;;;;;;;;;;;;;;;5034083;28;19921;-61
2023/09/26 14:40:45;;;;;;;;;;;;;;;;;;5033491;28;19949;-61
2023/09/26 14:43:11;;;;;;;;;;;;;;;;;;5033794;28;20569;-62
2023/09/26 14:45:36;;;;;;;;;;;;;;;;;;5032934;28;19929;-61
2023/09/26 14:48:04;;;;;;;;;;;;;;;;;;5033295;28;20315;-61
2023/09/26 14:50:30;;;;;;;;;;;;;;;;;;5035727;28;19925;-61
2023/09/26 14:52:56;;;;;;;;;;;;;;;;;;5032417;28;19932;-61
2023/09/26 14:55:22;;;;;;;;;;;;;;;;;;5030470;28;19932;-60
2023/09/26 14:57:47;;;;;;;;;;;;;;;;;;5031633;28;20274;-61
2023/09/26 15:00:14;;;;;;;;;;;;;;;;;;5021762;28;19941;-61
2023/09/26 15:02:39;;;;;;;;;;;;;;;;;;5030540;28;19921;-60
2023/09/26 15:05:05;;;;;;;;;;;;;;;;;;5020649;28;19925;-60
2023/09/26 15:07:31;;;;;;;;;;;;;;;;;;5028469;28;19975;-60
2023/09/26 15:09:58;;;;;;;;;;;;;;;;;;5026686;28;19955;-61
2023/09/26 15:12:24;;;;;;;;;;;;;;;;;;5043956;28;19929;-60
2023/09/26 15:14:50;;;;;;;;;;;;;;;;;;5026071;28;20327;-61
2023/09/26 15:17:16;;;;;;;;;;;;;;;;;;5025070;28;19933;-60
2023/09/26 15:19:42;;;;;;;;;;;;;;;;;;5033697;28;20011;-60
2023/09/26 15:22:07;;;;;;;;;;;;;;;;;;5030782;28;19925;-60
2023/09/26 15:24:33;;;;;;;;;;;;;;;;;;5031818;28;19936;-61
2023/09/26 15:26:59;;;;;;;;;;;;;;;;;;5013019;28;20371;-60
2023/09/26 15:29:25;;;;;;;;;;;;;;;;;;5030156;28;20016;-61
2023/09/26 15:31:52;;;;;;;;;;;;;;;;;;5031229;28;19987;-60
2023/09/26 15:34:18;;;;;;;;;;;;;;;;;;5030612;28;20338;-60
2023/09/26 15:36:44;;;;;;;;;;;;;;;;;;5031301;28;19925;-61
2023/09/26 15:39:10;;;;;;;;;;;;;;;;;;5031114;28;19948;-61
2023/09/26 15:41:36;;;;;;;;;;;;;;;;;;5031975;28;19956;-61
2023/09/26 15:44:02;;;;;;;;;;;;;;;;;;5031602;28;19929;-61
2023/09/26 15:46:29;;;;;;;;;;;;;;;;;;5028020;28;20341;-61
2023/09/26 15:48:55;;;;;;;;;;;;;;;;;;5023113;28;19940;-61
2023/09/26 15:51:21;;;;;;;;;;;;;;;;;;5027509;28;20368;-60
2023/09/26 15:53:48;;;;;;;;;;;;;;;;;;5028347;28;19928;-61
2023/09/26 15:56:14;;;;;;;;;;;;;;;;;;5031311;28;19925;-60
2023/09/26 15:58:40;;;;;;;;;;;;;;;;;;5027845;28;19929;-60
2023/09/26 16:01:06;;;;;;;;;;;;;;;;;;5028411;28;20020;-60
2023/09/26 16:03:32;;;;;;;;;;;;;;;;;;5023061;28;19922;-60
2023/09/26 16:05:58;;;;;;;;;;;;;;;;;;5021999;28;19928;-60
2023/09/26 16:08:24;;;;;;;;;;;;;;;;;;5005045;28;20370;-60
2023/09/26 16:10:50;;;;;;;;;;;;;;;;;;5026432;28;20371;-61
2023/09/26 16:13:15;;;;;;;;;;;;;;;;;;5026465;28;19921;-61
2023/09/26 16:15:42;;;;;;;;;;;;;;;;;;5028223;28;19928;-60
2023/09/26 16:18:08;;;;;;;;;;;;;;;;;;5021118;28;19925;-60
2023/09/26 16:20:33;;;;;;;;;;;;;;;;;;5025543;28;19925;-60
2023/09/26 16:22:59;;;;;;;;;;;;;;;;;;5022912;28;20290;-60
2023/09/26 16:25:25;;;;;;;;;;;;;;;;;;5018251;28;19937;-60
2023/09/26 16:27:51;;;;;;;;;;;;;;;;;;5014558;28;19929;-59
2023/09/26 16:30:17;;;;;;;;;;;;;;;;;;5015698;28;20055;-60
2023/09/26 16:32:43;;;;;;;;;;;;;;;;;;5023946;28;20267;-60
2023/09/26 16:35:09;;;;;;;;;;;;;;;;;;5017680;28;19921;-60
2023/09/26 16:37:35;;;;;;;;;;;;;;;;;;5026884;28;20332;-60